sensor_id;sensor_type;location;lat;lon;timestamp;temperature;humidity
37984;DHT22;64625;50.882;4.376;2023-02-01T00:00:20;8.00;99.90
37984;DHT22;64625;50.882;4.376;2023-02-01T00:02:49;8.10;99.90
37984;DHT22;64625;50.882;4.376;2023-02-01T00:05:14;8.10;99.90
37984;DHT22;64625;50.882;4.376;2023-02-01T00:07:40;8.10;99.90
37984;DHT22;64625;50.882;4.376;2023-02-01T00:10:07;8.10;99.90
37984;DHT22;64625;50.882;4.376;2023-02-01T00:12:33;8.10;99.90
37984;DHT22;64625;50.882;4.376;2023-02-01T00:14:59;8.10;99.90
37984;DHT22;64625;50.882;4.376;2023-02-01T00:17:25;8.10;99.90
37984;DHT22;64625;50.882;4.376;2023-02-01T00:19:50;8.10;99.90
37984;DHT22;64625;50.882;4.376;2023-02-01T00:22:16;8.10;99.90
37984;DHT22;64625;50.882;4.376;2023-02-01T00:24:43;8.00;99.90
37984;DHT22;64625;50.882;4.376;2023-02-01T00:27:09;8.10;99.90
37984;DHT22;64625;50.882;4.376;2023-02-01T00:29:35;8.10;99.90
37984;DHT22;64625;50.882;4.376;2023-02-01T00:32:01;8.10;99.90
37984;DHT22;64625;50.882;4.376;2023-02-01T00:34:26;8.10;99.90
37984;DHT22;64625;50.882;4.376;2023-02-01T00:36:52;8.10;99.90
37984;DHT22;64625;50.882;4.376;2023-02-01T00:39:19;8.10;99.90
37984;DHT22;64625;50.882;4.376;2023-02-01T00:41:45;8.10;99.90
37984;DHT22;64625;50.882;4.376;2023-02-01T00:44:11;8.10;99.90
37984;DHT22;64625;50.882;4.376;2023-02-01T00:46:36;8.10;99.90
37984;DHT22;64625;50.882;4.376;2023-02-01T00:49:03;8.10;99.90
37984;DHT22;64625;50.882;4.376;2023-02-01T00:51:29;8.10;99.90
37984;DHT22;64625;50.882;4.376;2023-02-01T00:53:56;8.10;99.90
37984;DHT22;64625;50.882;4.376;2023-02-01T00:56:22;8.10;99.90
37984;DHT22;64625;50.882;4.376;2023-02-01T00:58:48;8.10;99.90
37984;DHT22;64625;50.882;4.376;2023-02-01T01:01:25;8.10;99.90
37984;DHT22;64625;50.882;4.376;2023-02-01T01:03:53;8.10;99.90
37984;DHT22;64625;50.882;4.376;2023-02-01T01:06:29;8.10;99.90
37984;DHT22;64625;50.882;4.376;2023-02-01T01:08:56;8.10;99.90
37984;DHT22;64625;50.882;4.376;2023-02-01T01:11:25;8.10;99.90
37984;DHT22;64625;50.882;4.376;2023-02-01T01:13:53;8.10;99.90
37984;DHT22;64625;50.882;4.376;2023-02-01T01:16:21;8.10;99.90
37984;DHT22;64625;50.882;4.376;2023-02-01T01:18:47;8.10;99.90
37984;DHT22;64625;50.882;4.376;2023-02-01T01:21:14;8.10;99.90
37984;DHT22;64625;50.882;4.376;2023-02-01T01:23:41;8.10;99.90
37984;DHT22;64625;50.882;4.376;2023-02-01T01:26:13;8.10;99.90
37984;DHT22;64625;50.882;4.376;2023-02-01T01:28:39;8.10;99.90
37984;DHT22;64625;50.882;4.376;2023-02-01T01:31:14;8.10;99.90
37984;DHT22;64625;50.882;4.376;2023-02-01T01:33:40;8.10;99.90
37984;DHT22;64625;50.882;4.376;2023-02-01T01:36:07;8.10;99.90
37984;DHT22;64625;50.882;4.376;2023-02-01T01:38:35;8.10;99.90
37984;DHT22;64625;50.882;4.376;2023-02-01T01:41:01;8.10;99.90
37984;DHT22;64625;50.882;4.376;2023-02-01T01:46:16;8.10;99.90
37984;DHT22;64625;50.882;4.376;2023-02-01T01:48:42;8.10;99.90
37984;DHT22;64625;50.882;4.376;2023-02-01T01:51:10;8.10;99.90
37984;DHT22;64625;50.882;4.376;2023-02-01T01:53:45;8.10;99.90
37984;DHT22;64625;50.882;4.376;2023-02-01T01:56:13;8.10;99.90
37984;DHT22;64625;50.882;4.376;2023-02-01T01:58:40;8.10;99.90
37984;DHT22;64625;50.882;4.376;2023-02-01T02:01:06;8.10;99.90
37984;DHT22;64625;50.882;4.376;2023-02-01T02:03:41;8.00;99.90
37984;DHT22;64625;50.882;4.376;2023-02-01T02:06:54;8.00;99.90
37984;DHT22;64625;50.882;4.376;2023-02-01T02:09:17;8.00;99.90
37984;DHT22;64625;50.882;4.376;2023-02-01T02:11:43;8.00;99.90
37984;DHT22;64625;50.882;4.376;2023-02-01T02:14:11;8.00;99.90
37984;DHT22;64625;50.882;4.376;2023-02-01T02:16:52;7.90;99.90
37984;DHT22;64625;50.882;4.376;2023-02-01T02:27:52;7.80;99.90
37984;DHT22;64625;50.882;4.376;2023-02-01T02:44:48;7.70;99.90
37984;DHT22;64625;50.882;4.376;2023-02-01T02:50:49;7.80;99.90
37984;DHT22;64625;50.882;4.376;2023-02-01T02:56:49;7.70;99.90
37984;DHT22;64625;50.882;4.376;2023-02-01T02:59:35;7.70;99.90
37984;DHT22;64625;50.882;4.376;2023-02-01T03:02:20;7.70;99.90
37984;DHT22;64625;50.882;4.376;2023-02-01T03:05:06;7.70;99.90
37984;DHT22;64625;50.882;4.376;2023-02-01T03:13:36;7.60;99.90
37984;DHT22;64625;50.882;4.376;2023-02-01T03:16:23;7.60;99.90
37984;DHT22;64625;50.882;4.376;2023-02-01T03:19:00;7.60;99.90
37984;DHT22;64625;50.882;4.376;2023-02-01T03:21:55;7.60;99.90
37984;DHT22;64625;50.882;4.376;2023-02-01T03:24:24;7.60;99.90
37984;DHT22;64625;50.882;4.376;2023-02-01T03:29:54;7.60;99.90
37984;DHT22;64625;50.882;4.376;2023-02-01T03:32:21;7.60;99.90
37984;DHT22;64625;50.882;4.376;2023-02-01T03:34:48;7.60;99.90
37984;DHT22;64625;50.882;4.376;2023-02-01T03:37:25;7.50;99.90
37984;DHT22;64625;50.882;4.376;2023-02-01T03:42:40;7.50;99.90
37984;DHT22;64625;50.882;4.376;2023-02-01T03:47:43;7.50;99.90
37984;DHT22;64625;50.882;4.376;2023-02-01T03:50:23;7.50;99.90
37984;DHT22;64625;50.882;4.376;2023-02-01T03:52:52;7.50;99.90
37984;DHT22;64625;50.882;4.376;2023-02-01T03:55:22;7.50;99.90
37984;DHT22;64625;50.882;4.376;2023-02-01T03:57:57;7.50;99.90
37984;DHT22;64625;50.882;4.376;2023-02-01T04:00:26;7.50;99.90
37984;DHT22;64625;50.882;4.376;2023-02-01T04:02:52;7.50;99.90
37984;DHT22;64625;50.882;4.376;2023-02-01T04:05:18;7.40;99.90
37984;DHT22;64625;50.882;4.376;2023-02-01T04:07:44;7.40;99.90
37984;DHT22;64625;50.882;4.376;2023-02-01T04:10:11;7.40;99.90
37984;DHT22;64625;50.882;4.376;2023-02-01T04:12:37;7.40;99.90
37984;DHT22;64625;50.882;4.376;2023-02-01T04:15:04;7.40;99.90
37984;DHT22;64625;50.882;4.376;2023-02-01T04:17:30;7.40;99.90
37984;DHT22;64625;50.882;4.376;2023-02-01T04:19:56;7.30;99.90
37984;DHT22;64625;50.882;4.376;2023-02-01T04:22:22;7.30;99.90
37984;DHT22;64625;50.882;4.376;2023-02-01T04:24:48;7.30;99.90
37984;DHT22;64625;50.882;4.376;2023-02-01T04:27:15;7.30;99.90
37984;DHT22;64625;50.882;4.376;2023-02-01T04:29:40;7.20;99.90
37984;DHT22;64625;50.882;4.376;2023-02-01T04:32:07;7.20;99.90
37984;DHT22;64625;50.882;4.376;2023-02-01T04:34:33;7.20;99.90
37984;DHT22;64625;50.882;4.376;2023-02-01T04:36:59;7.20;99.90
37984;DHT22;64625;50.882;4.376;2023-02-01T04:39:24;7.20;99.90
37984;DHT22;64625;50.882;4.376;2023-02-01T04:41:50;7.20;99.90
37984;DHT22;64625;50.882;4.376;2023-02-01T04:44:17;7.20;99.90
37984;DHT22;64625;50.882;4.376;2023-02-01T04:46:44;7.10;99.90
37984;DHT22;64625;50.882;4.376;2023-02-01T04:49:11;7.10;99.90
37984;DHT22;64625;50.882;4.376;2023-02-01T04:51:37;7.10;99.90
37984;DHT22;64625;50.882;4.376;2023-02-01T04:54:04;7.10;99.90
37984;DHT22;64625;50.882;4.376;2023-02-01T04:56:30;7.00;99.90
37984;DHT22;64625;50.882;4.376;2023-02-01T04:58:56;7.00;99.90
37984;DHT22;64625;50.882;4.376;2023-02-01T05:01:22;7.00;99.90
37984;DHT22;64625;50.882;4.376;2023-02-01T05:03:50;7.10;99.90
37984;DHT22;64625;50.882;4.376;2023-02-01T05:06:16;7.00;99.90
37984;DHT22;64625;50.882;4.376;2023-02-01T05:08:42;7.00;99.90
37984;DHT22;64625;50.882;4.376;2023-02-01T05:11:08;7.00;99.90
37984;DHT22;64625;50.882;4.376;2023-02-01T05:13:54;6.90;99.90
37984;DHT22;64625;50.882;4.376;2023-02-01T05:16:19;7.00;99.90
37984;DHT22;64625;50.882;4.376;2023-02-01T05:18:45;6.90;99.90
37984;DHT22;64625;50.882;4.376;2023-02-01T05:21:11;6.90;99.90
37984;DHT22;64625;50.882;4.376;2023-02-01T05:23:37;6.90;99.90
37984;DHT22;64625;50.882;4.376;2023-02-01T05:26:26;6.90;99.90
37984;DHT22;64625;50.882;4.376;2023-02-01T05:28:51;6.90;99.90
37984;DHT22;64625;50.882;4.376;2023-02-01T05:31:17;6.90;99.90
37984;DHT22;64625;50.882;4.376;2023-02-01T05:33:43;6.80;99.90
37984;DHT22;64625;50.882;4.376;2023-02-01T05:36:09;6.80;99.90
37984;DHT22;64625;50.882;4.376;2023-02-01T05:38:35;6.80;99.90
37984;DHT22;64625;50.882;4.376;2023-02-01T05:41:00;6.80;99.90
37984;DHT22;64625;50.882;4.376;2023-02-01T05:43:26;6.80;99.90
37984;DHT22;64625;50.882;4.376;2023-02-01T05:45:52;6.70;99.90
37984;DHT22;64625;50.882;4.376;2023-02-01T05:48:19;6.70;99.90
37984;DHT22;64625;50.882;4.376;2023-02-01T05:50:45;6.80;99.90
37984;DHT22;64625;50.882;4.376;2023-02-01T05:53:12;6.70;99.90
37984;DHT22;64625;50.882;4.376;2023-02-01T05:55:38;6.70;99.90
37984;DHT22;64625;50.882;4.376;2023-02-01T05:58:04;6.70;99.90
37984;DHT22;64625;50.882;4.376;2023-02-01T06:00:31;6.70;99.90
37984;DHT22;64625;50.882;4.376;2023-02-01T06:02:56;6.70;99.90
37984;DHT22;64625;50.882;4.376;2023-02-01T06:05:23;6.60;99.90
37984;DHT22;64625;50.882;4.376;2023-02-01T06:07:49;6.60;99.90
37984;DHT22;64625;50.882;4.376;2023-02-01T06:10:16;6.60;99.90
37984;DHT22;64625;50.882;4.376;2023-02-01T06:12:42;6.60;99.90
37984;DHT22;64625;50.882;4.376;2023-02-01T06:15:14;6.60;99.90
37984;DHT22;64625;50.882;4.376;2023-02-01T06:17:45;6.50;99.90
37984;DHT22;64625;50.882;4.376;2023-02-01T06:20:12;6.50;99.90
37984;DHT22;64625;50.882;4.376;2023-02-01T06:22:39;6.50;99.90
37984;DHT22;64625;50.882;4.376;2023-02-01T06:25:06;6.50;99.90
37984;DHT22;64625;50.882;4.376;2023-02-01T06:27:33;6.50;99.90
37984;DHT22;64625;50.882;4.376;2023-02-01T06:29:59;6.50;99.90
37984;DHT22;64625;50.882;4.376;2023-02-01T06:32:24;6.50;99.90
37984;DHT22;64625;50.882;4.376;2023-02-01T06:34:51;6.50;99.90
37984;DHT22;64625;50.882;4.376;2023-02-01T06:37:20;6.50;99.90
37984;DHT22;64625;50.882;4.376;2023-02-01T06:39:47;6.50;99.90
37984;DHT22;64625;50.882;4.376;2023-02-01T06:42:13;6.50;99.90
37984;DHT22;64625;50.882;4.376;2023-02-01T06:44:39;6.50;99.90
37984;DHT22;64625;50.882;4.376;2023-02-01T06:47:05;6.50;99.90
37984;DHT22;64625;50.882;4.376;2023-02-01T06:49:31;6.50;99.90
37984;DHT22;64625;50.882;4.376;2023-02-01T06:51:57;6.50;99.90
37984;DHT22;64625;50.882;4.376;2023-02-01T06:54:26;6.50;99.90
37984;DHT22;64625;50.882;4.376;2023-02-01T06:56:52;6.40;99.90
37984;DHT22;64625;50.882;4.376;2023-02-01T06:59:18;6.40;99.90
37984;DHT22;64625;50.882;4.376;2023-02-01T07:01:44;6.40;99.90
37984;DHT22;64625;50.882;4.376;2023-02-01T07:04:11;6.40;99.90
37984;DHT22;64625;50.882;4.376;2023-02-01T07:06:38;6.40;99.90
37984;DHT22;64625;50.882;4.376;2023-02-01T07:09:07;6.50;99.90
37984;DHT22;64625;50.882;4.376;2023-02-01T07:11:33;6.40;99.90
37984;DHT22;64625;50.882;4.376;2023-02-01T07:14:02;6.40;99.90
37984;DHT22;64625;50.882;4.376;2023-02-01T07:16:28;6.40;99.90
37984;DHT22;64625;50.882;4.376;2023-02-01T07:18:54;6.40;99.90
37984;DHT22;64625;50.882;4.376;2023-02-01T07:21:20;6.40;99.90
37984;DHT22;64625;50.882;4.376;2023-02-01T07:23:46;6.40;99.90
37984;DHT22;64625;50.882;4.376;2023-02-01T07:26:13;6.40;99.90
37984;DHT22;64625;50.882;4.376;2023-02-01T07:28:40;6.40;99.90
37984;DHT22;64625;50.882;4.376;2023-02-01T07:31:12;6.40;99.90
37984;DHT22;64625;50.882;4.376;2023-02-01T07:33:42;6.40;99.90
37984;DHT22;64625;50.882;4.376;2023-02-01T07:36:12;6.40;99.90
37984;DHT22;64625;50.882;4.376;2023-02-01T07:38:38;6.40;99.90
37984;DHT22;64625;50.882;4.376;2023-02-01T07:41:05;6.40;99.90
37984;DHT22;64625;50.882;4.376;2023-02-01T07:43:32;6.40;99.90
37984;DHT22;64625;50.882;4.376;2023-02-01T07:46:03;6.40;99.90
37984;DHT22;64625;50.882;4.376;2023-02-01T07:48:30;6.40;99.90
37984;DHT22;64625;50.882;4.376;2023-02-01T07:51:05;6.40;99.90
37984;DHT22;64625;50.882;4.376;2023-02-01T07:53:32;6.40;99.90
37984;DHT22;64625;50.882;4.376;2023-02-01T07:55:58;6.40;99.90
37984;DHT22;64625;50.882;4.376;2023-02-01T07:58:25;6.40;99.90
37984;DHT22;64625;50.882;4.376;2023-02-01T08:00:51;6.40;99.90
37984;DHT22;64625;50.882;4.376;2023-02-01T08:03:36;6.50;99.90
37984;DHT22;64625;50.882;4.376;2023-02-01T08:06:03;6.50;99.90
37984;DHT22;64625;50.882;4.376;2023-02-01T08:08:28;6.50;99.90
37984;DHT22;64625;50.882;4.376;2023-02-01T08:11:02;6.50;99.90
37984;DHT22;64625;50.882;4.376;2023-02-01T08:13:28;6.50;99.90
37984;DHT22;64625;50.882;4.376;2023-02-01T08:16:01;6.60;99.90
37984;DHT22;64625;50.882;4.376;2023-02-01T08:18:28;6.60;99.90
37984;DHT22;64625;50.882;4.376;2023-02-01T08:20:53;6.60;99.90
37984;DHT22;64625;50.882;4.376;2023-02-01T08:23:20;6.70;99.90
37984;DHT22;64625;50.882;4.376;2023-02-01T08:25:46;6.70;99.90
37984;DHT22;64625;50.882;4.376;2023-02-01T08:28:12;6.70;99.90
37984;DHT22;64625;50.882;4.376;2023-02-01T08:30:39;6.70;99.90
37984;DHT22;64625;50.882;4.376;2023-02-01T08:33:06;6.70;99.90
37984;DHT22;64625;50.882;4.376;2023-02-01T08:35:34;6.70;99.90
37984;DHT22;64625;50.882;4.376;2023-02-01T08:38:00;6.70;99.90
37984;DHT22;64625;50.882;4.376;2023-02-01T08:40:26;6.80;99.90
37984;DHT22;64625;50.882;4.376;2023-02-01T08:42:51;6.80;99.90
37984;DHT22;64625;50.882;4.376;2023-02-01T08:45:19;6.80;99.90
37984;DHT22;64625;50.882;4.376;2023-02-01T08:47:46;6.80;99.90
37984;DHT22;64625;50.882;4.376;2023-02-01T08:50:17;6.90;99.90
37984;DHT22;64625;50.882;4.376;2023-02-01T08:52:43;6.90;99.90
37984;DHT22;64625;50.882;4.376;2023-02-01T08:55:10;6.90;99.90
37984;DHT22;64625;50.882;4.376;2023-02-01T08:57:38;6.90;99.90
37984;DHT22;64625;50.882;4.376;2023-02-01T09:00:05;6.90;99.90
37984;DHT22;64625;50.882;4.376;2023-02-01T09:02:31;7.00;99.90
37984;DHT22;64625;50.882;4.376;2023-02-01T09:04:57;7.00;99.90
37984;DHT22;64625;50.882;4.376;2023-02-01T09:07:23;7.00;99.90
37984;DHT22;64625;50.882;4.376;2023-02-01T09:09:49;7.10;99.90
37984;DHT22;64625;50.882;4.376;2023-02-01T09:12:15;7.10;99.90
37984;DHT22;64625;50.882;4.376;2023-02-01T09:14:41;7.10;99.90
37984;DHT22;64625;50.882;4.376;2023-02-01T09:17:06;7.20;99.90
37984;DHT22;64625;50.882;4.376;2023-02-01T09:19:32;7.20;99.90
37984;DHT22;64625;50.882;4.376;2023-02-01T09:21:58;7.30;99.90
37984;DHT22;64625;50.882;4.376;2023-02-01T09:24:24;7.30;99.90
37984;DHT22;64625;50.882;4.376;2023-02-01T09:26:50;7.30;99.90
37984;DHT22;64625;50.882;4.376;2023-02-01T09:29:18;7.40;99.90
37984;DHT22;64625;50.882;4.376;2023-02-01T09:31:44;7.40;99.90
37984;DHT22;64625;50.882;4.376;2023-02-01T09:34:09;7.50;99.90
37984;DHT22;64625;50.882;4.376;2023-02-01T09:36:35;7.50;99.90
37984;DHT22;64625;50.882;4.376;2023-02-01T09:39:01;7.60;99.90
37984;DHT22;64625;50.882;4.376;2023-02-01T09:44:30;7.70;99.90
37984;DHT22;64625;50.882;4.376;2023-02-01T09:47:01;7.70;99.90
37984;DHT22;64625;50.882;4.376;2023-02-01T09:49:32;7.80;99.90
37984;DHT22;64625;50.882;4.376;2023-02-01T09:52:02;7.90;99.90
37984;DHT22;64625;50.882;4.376;2023-02-01T09:54:42;7.90;99.90
37984;DHT22;64625;50.882;4.376;2023-02-01T09:57:19;8.00;99.90
37984;DHT22;64625;50.882;4.376;2023-02-01T10:00:04;8.00;99.90
37984;DHT22;64625;50.882;4.376;2023-02-01T10:02:36;8.10;99.90
37984;DHT22;64625;50.882;4.376;2023-02-01T10:05:03;8.10;99.90
37984;DHT22;64625;50.882;4.376;2023-02-01T10:13:13;8.30;99.90
37984;DHT22;64625;50.882;4.376;2023-02-01T10:15:47;8.40;99.90
37984;DHT22;64625;50.882;4.376;2023-02-01T10:21:19;8.50;99.90
37984;DHT22;64625;50.882;4.376;2023-02-01T10:26:46;8.60;99.90
37984;DHT22;64625;50.882;4.376;2023-02-01T10:29:20;8.60;99.90
37984;DHT22;64625;50.882;4.376;2023-02-01T10:31:46;8.70;99.90
37984;DHT22;64625;50.882;4.376;2023-02-01T10:34:22;8.70;99.90
37984;DHT22;64625;50.882;4.376;2023-02-01T10:37:01;8.80;99.90
37984;DHT22;64625;50.882;4.376;2023-02-01T10:39:33;8.80;99.90
37984;DHT22;64625;50.882;4.376;2023-02-01T10:41:59;8.90;99.90
37984;DHT22;64625;50.882;4.376;2023-02-01T10:44:28;8.90;99.90
37984;DHT22;64625;50.882;4.376;2023-02-01T10:46:55;9.00;99.90
37984;DHT22;64625;50.882;4.376;2023-02-01T10:49:31;9.00;99.90
37984;DHT22;64625;50.882;4.376;2023-02-01T10:52:17;9.10;99.90
37984;DHT22;64625;50.882;4.376;2023-02-01T10:54:45;9.20;99.90
37984;DHT22;64625;50.882;4.376;2023-02-01T10:57:31;9.20;99.90
37984;DHT22;64625;50.882;4.376;2023-02-01T10:59:57;9.30;99.90
37984;DHT22;64625;50.882;4.376;2023-02-01T11:04:49;9.40;99.90
37984;DHT22;64625;50.882;4.376;2023-02-01T11:07:23;9.50;99.90
37984;DHT22;64625;50.882;4.376;2023-02-01T11:09:53;9.50;99.90
37984;DHT22;64625;50.882;4.376;2023-02-01T11:12:32;9.60;99.90
37984;DHT22;64625;50.882;4.376;2023-02-01T11:17:43;9.70;99.90
37984;DHT22;64625;50.882;4.376;2023-02-01T11:20:21;9.70;99.90
37984;DHT22;64625;50.882;4.376;2023-02-01T11:22:59;9.80;99.90
37984;DHT22;64625;50.882;4.376;2023-02-01T11:25:26;9.90;99.90
37984;DHT22;64625;50.882;4.376;2023-02-01T11:27:54;9.90;99.90
37984;DHT22;64625;50.882;4.376;2023-02-01T11:30:38;10.00;99.90
37984;DHT22;64625;50.882;4.376;2023-02-01T11:33:09;10.00;99.90
37984;DHT22;64625;50.882;4.376;2023-02-01T11:35:39;10.10;99.90
37984;DHT22;64625;50.882;4.376;2023-02-01T11:40:44;10.10;99.90
37984;DHT22;64625;50.882;4.376;2023-02-01T11:43:26;10.10;99.90
37984;DHT22;64625;50.882;4.376;2023-02-01T11:45:59;10.10;99.90
37984;DHT22;64625;50.882;4.376;2023-02-01T11:48:28;10.10;99.90
37984;DHT22;64625;50.882;4.376;2023-02-01T11:51:08;10.10;99.90
37984;DHT22;64625;50.882;4.376;2023-02-01T11:54:08;10.10;99.90
37984;DHT22;64625;50.882;4.376;2023-02-01T12:02:30;10.20;99.90
37984;DHT22;64625;50.882;4.376;2023-02-01T12:11:48;10.40;99.90
37984;DHT22;64625;50.882;4.376;2023-02-01T12:17:41;10.50;99.90
37984;DHT22;64625;50.882;4.376;2023-02-01T12:23:13;10.60;99.90
37984;DHT22;64625;50.882;4.376;2023-02-01T12:26:06;10.70;99.90
37984;DHT22;64625;50.882;4.376;2023-02-01T12:39:37;11.10;99.90
37984;DHT22;64625;50.882;4.376;2023-02-01T12:41:56;11.20;99.90
37984;DHT22;64625;50.882;4.376;2023-02-01T12:49:53;11.40;99.90
37984;DHT22;64625;50.882;4.376;2023-02-01T12:52:53;11.40;99.90
37984;DHT22;64625;50.882;4.376;2023-02-01T12:55:38;11.50;99.90
37984;DHT22;64625;50.882;4.376;2023-02-01T12:58:14;11.50;99.90
37984;DHT22;64625;50.882;4.376;2023-02-01T13:00:52;11.60;99.90
37984;DHT22;64625;50.882;4.376;2023-02-01T13:06:36;11.70;99.90
37984;DHT22;64625;50.882;4.376;2023-02-01T13:09:25;11.80;99.90
37984;DHT22;64625;50.882;4.376;2023-02-01T13:11:55;11.80;99.90
37984;DHT22;64625;50.882;4.376;2023-02-01T13:17:20;11.90;99.90
37984;DHT22;64625;50.882;4.376;2023-02-01T13:20:19;12.00;99.90
37984;DHT22;64625;50.882;4.376;2023-02-01T13:22:51;12.00;99.90
37984;DHT22;64625;50.882;4.376;2023-02-01T13:25:46;12.00;99.90
37984;DHT22;64625;50.882;4.376;2023-02-01T13:28:23;12.00;99.90
37984;DHT22;64625;50.882;4.376;2023-02-01T13:41:36;12.20;99.90
37984;DHT22;64625;50.882;4.376;2023-02-01T13:44:50;12.20;99.90
37984;DHT22;64625;50.882;4.376;2023-02-01T13:46:59;12.20;99.90
37984;DHT22;64625;50.882;4.376;2023-02-01T13:49:30;12.20;99.90
37984;DHT22;64625;50.882;4.376;2023-02-01T13:51:58;12.20;99.90
37984;DHT22;64625;50.882;4.376;2023-02-01T13:54:33;12.20;99.90
37984;DHT22;64625;50.882;4.376;2023-02-01T13:57:01;12.20;99.90
37984;DHT22;64625;50.882;4.376;2023-02-01T13:59:51;12.20;99.90
37984;DHT22;64625;50.882;4.376;2023-02-01T14:05:53;12.20;99.90
37984;DHT22;64625;50.882;4.376;2023-02-01T14:08:11;12.20;99.90
37984;DHT22;64625;50.882;4.376;2023-02-01T14:10:57;12.20;99.90
37984;DHT22;64625;50.882;4.376;2023-02-01T14:21:31;12.10;99.90
37984;DHT22;64625;50.882;4.376;2023-02-01T14:26:49;12.00;99.90
37984;DHT22;64625;50.882;4.376;2023-02-01T14:42:25;11.70;99.90
37984;DHT22;64625;50.882;4.376;2023-02-01T14:47:41;11.70;99.90
37984;DHT22;64625;50.882;4.376;2023-02-01T14:52:36;11.60;99.90
37984;DHT22;64625;50.882;4.376;2023-02-01T14:55:30;11.50;99.90
37984;DHT22;64625;50.882;4.376;2023-02-01T14:58:01;11.50;99.90
37984;DHT22;64625;50.882;4.376;2023-02-01T15:00:30;11.50;99.90
37984;DHT22;64625;50.882;4.376;2023-02-01T15:05:39;11.40;99.90
37984;DHT22;64625;50.882;4.376;2023-02-01T15:08:14;11.40;99.90
37984;DHT22;64625;50.882;4.376;2023-02-01T15:10:46;11.40;99.90
37984;DHT22;64625;50.882;4.376;2023-02-01T15:13:20;11.40;99.90
37984;DHT22;64625;50.882;4.376;2023-02-01T15:16:12;11.30;99.90
37984;DHT22;64625;50.882;4.376;2023-02-01T15:18:40;11.30;99.90
37984;DHT22;64625;50.882;4.376;2023-02-01T15:21:14;11.30;99.90
37984;DHT22;64625;50.882;4.376;2023-02-01T15:23:40;11.20;99.90
37984;DHT22;64625;50.882;4.376;2023-02-01T15:26:06;11.20;99.90
37984;DHT22;64625;50.882;4.376;2023-02-01T15:28:32;11.20;99.90
37984;DHT22;64625;50.882;4.376;2023-02-01T15:31:02;11.10;99.90
37984;DHT22;64625;50.882;4.376;2023-02-01T15:33:29;11.10;99.90
37984;DHT22;64625;50.882;4.376;2023-02-01T15:36:10;11.00;99.90
37984;DHT22;64625;50.882;4.376;2023-02-01T15:38:41;11.00;99.90
37984;DHT22;64625;50.882;4.376;2023-02-01T15:41:20;11.00;99.90
37984;DHT22;64625;50.882;4.376;2023-02-01T15:46:33;10.90;99.90
37984;DHT22;64625;50.882;4.376;2023-02-01T15:49:02;10.90;99.90
37984;DHT22;64625;50.882;4.376;2023-02-01T15:51:30;10.90;99.90
37984;DHT22;64625;50.882;4.376;2023-02-01T15:54:04;10.90;99.90
37984;DHT22;64625;50.882;4.376;2023-02-01T15:56:36;10.90;99.90
37984;DHT22;64625;50.882;4.376;2023-02-01T15:59:06;10.80;99.90
37984;DHT22;64625;50.882;4.376;2023-02-01T16:01:38;10.90;99.90
37984;DHT22;64625;50.882;4.376;2023-02-01T16:04:20;10.80;99.90
37984;DHT22;64625;50.882;4.376;2023-02-01T16:06:49;10.80;99.90
37984;DHT22;64625;50.882;4.376;2023-02-01T16:09:18;10.80;99.90
37984;DHT22;64625;50.882;4.376;2023-02-01T16:11:57;10.70;99.90
37984;DHT22;64625;50.882;4.376;2023-02-01T16:14:25;10.70;99.90
37984;DHT22;64625;50.882;4.376;2023-02-01T16:16:53;10.70;99.90
37984;DHT22;64625;50.882;4.376;2023-02-01T16:19:19;10.70;99.90
37984;DHT22;64625;50.882;4.376;2023-02-01T16:21:46;10.60;99.90
37984;DHT22;64625;50.882;4.376;2023-02-01T16:24:12;10.60;99.90
37984;DHT22;64625;50.882;4.376;2023-02-01T16:26:38;10.70;99.90
37984;DHT22;64625;50.882;4.376;2023-02-01T16:29:05;10.60;99.90
37984;DHT22;64625;50.882;4.376;2023-02-01T16:31:36;10.60;99.90
37984;DHT22;64625;50.882;4.376;2023-02-01T16:34:03;10.60;99.90
37984;DHT22;64625;50.882;4.376;2023-02-01T16:36:29;10.60;99.90
37984;DHT22;64625;50.882;4.376;2023-02-01T16:38:55;10.60;99.90
37984;DHT22;64625;50.882;4.376;2023-02-01T16:41:23;10.60;99.90
37984;DHT22;64625;50.882;4.376;2023-02-01T16:43:53;10.50;99.90
37984;DHT22;64625;50.882;4.376;2023-02-01T16:46:22;10.50;99.90
37984;DHT22;64625;50.882;4.376;2023-02-01T16:48:56;10.50;99.90
37984;DHT22;64625;50.882;4.376;2023-02-01T16:51:25;10.40;99.90
37984;DHT22;64625;50.882;4.376;2023-02-01T16:53:53;10.40;99.90
37984;DHT22;64625;50.882;4.376;2023-02-01T16:56:21;10.40;99.90
37984;DHT22;64625;50.882;4.376;2023-02-01T16:58:48;10.40;99.90
37984;DHT22;64625;50.882;4.376;2023-02-01T17:01:16;10.40;99.90
37984;DHT22;64625;50.882;4.376;2023-02-01T17:03:44;10.40;99.90
37984;DHT22;64625;50.882;4.376;2023-02-01T17:06:13;10.30;99.90
37984;DHT22;64625;50.882;4.376;2023-02-01T17:08:42;10.30;99.90
37984;DHT22;64625;50.882;4.376;2023-02-01T17:11:11;10.30;99.90
37984;DHT22;64625;50.882;4.376;2023-02-01T17:13:38;10.30;99.90
37984;DHT22;64625;50.882;4.376;2023-02-01T17:18:43;10.30;99.90
37984;DHT22;64625;50.882;4.376;2023-02-01T17:21:09;10.30;99.90
37984;DHT22;64625;50.882;4.376;2023-02-01T17:23:36;10.30;99.90
37984;DHT22;64625;50.882;4.376;2023-02-01T17:26:02;10.20;99.90
37984;DHT22;64625;50.882;4.376;2023-02-01T17:28:28;10.30;99.90
37984;DHT22;64625;50.882;4.376;2023-02-01T17:30:54;10.20;99.90
37984;DHT22;64625;50.882;4.376;2023-02-01T17:33:31;10.20;99.90
37984;DHT22;64625;50.882;4.376;2023-02-01T17:35:58;10.20;99.90
37984;DHT22;64625;50.882;4.376;2023-02-01T17:38:25;10.20;99.90
37984;DHT22;64625;50.882;4.376;2023-02-01T17:40:51;10.20;99.90
37984;DHT22;64625;50.882;4.376;2023-02-01T17:43:23;10.20;99.90
37984;DHT22;64625;50.882;4.376;2023-02-01T17:45:55;10.10;99.90
37984;DHT22;64625;50.882;4.376;2023-02-01T17:48:23;10.10;99.90
37984;DHT22;64625;50.882;4.376;2023-02-01T17:50:50;10.10;99.90
37984;DHT22;64625;50.882;4.376;2023-02-01T17:53:20;10.10;99.90
37984;DHT22;64625;50.882;4.376;2023-02-01T17:55:49;10.00;99.90
37984;DHT22;64625;50.882;4.376;2023-02-01T17:58:16;10.00;99.90
37984;DHT22;64625;50.882;4.376;2023-02-01T18:00:44;10.00;99.90
37984;DHT22;64625;50.882;4.376;2023-02-01T18:03:22;10.00;99.90
37984;DHT22;64625;50.882;4.376;2023-02-01T18:05:50;10.00;99.90
37984;DHT22;64625;50.882;4.376;2023-02-01T18:08:36;10.00;99.90
37984;DHT22;64625;50.882;4.376;2023-02-01T18:11:02;9.90;99.90
37984;DHT22;64625;50.882;4.376;2023-02-01T18:13:30;9.90;99.90
37984;DHT22;64625;50.882;4.376;2023-02-01T18:15:57;9.90;99.90
37984;DHT22;64625;50.882;4.376;2023-02-01T18:18:29;9.90;99.90
37984;DHT22;64625;50.882;4.376;2023-02-01T18:20:56;9.90;99.90
37984;DHT22;64625;50.882;4.376;2023-02-01T18:23:23;9.80;99.90
37984;DHT22;64625;50.882;4.376;2023-02-01T18:25:50;9.80;99.90
37984;DHT22;64625;50.882;4.376;2023-02-01T18:28:17;9.90;99.90
37984;DHT22;64625;50.882;4.376;2023-02-01T18:30:48;9.80;99.90
37984;DHT22;64625;50.882;4.376;2023-02-01T18:33:17;9.80;99.90
37984;DHT22;64625;50.882;4.376;2023-02-01T18:35:43;9.80;99.90
37984;DHT22;64625;50.882;4.376;2023-02-01T18:38:09;9.80;99.90
37984;DHT22;64625;50.882;4.376;2023-02-01T18:40:40;9.80;99.90